sensor_id;sensor_type;location;lat;lon;timestamp;pressure;altitude;pressure_sealevel;temperature;humidity
46782;BME280;32541;46.298;11.506;2024-02-04T00:01:50;90168.09;;;5.15;55.90
46782;BME280;32541;46.298;11.506;2024-02-04T00:04:15;90167.78;;;5.19;55.83
46782;BME280;32541;46.298;11.506;2024-02-04T00:06:41;90152.31;;;5.14;56.16
46782;BME280;32541;46.298;11.506;2024-02-04T00:09:06;90155.34;;;5.31;55.24
46782;BME280;32541;46.298;11.506;2024-02-04T00:11:32;90152.34;;;5.21;54.82
46782;BME280;32541;46.298;11.506;2024-02-04T00:13:57;90149.63;;;5.21;55.12
46782;BME280;32541;46.298;11.506;2024-02-04T00:16:23;90149.97;;;5.18;55.39
46782;BME280;32541;46.298;11.506;2024-02-04T00:18:48;90148.16;;;5.20;55.44
46782;BME280;32541;46.298;11.506;2024-02-04T00:21:13;90144.00;;;5.19;55.15
46782;BME280;32541;46.298;11.506;2024-02-04T00:23:39;90148.84;;;5.13;55.59
46782;BME280;32541;46.298;11.506;2024-02-04T00:26:04;90148.00;;;5.05;55.20
46782;BME280;32541;46.298;11.506;2024-02-04T00:28:30;90139.72;;;5.11;55.19
46782;BME280;32541;46.298;11.506;2024-02-04T00:30:55;90146.50;;;5.17;55.09
46782;BME280;32541;46.298;11.506;2024-02-04T00:33:23;90145.69;;;5.09;55.02
46782;BME280;32541;46.298;11.506;2024-02-04T00:35:48;90151.16;;;5.09;55.44
46782;BME280;32541;46.298;11.506;2024-02-04T00:38:14;90141.31;;;5.06;56.19
46782;BME280;32541;46.298;11.506;2024-02-04T00:40:39;90140.25;;;5.09;55.67
46782;BME280;32541;46.298;11.506;2024-02-04T00:43:06;90140.78;;;5.08;55.65
46782;BME280;32541;46.298;11.506;2024-02-04T00:45:31;90142.97;;;5.09;55.28
46782;BME280;32541;46.298;11.506;2024-02-04T00:47:57;90133.47;;;5.02;55.77
46782;BME280;32541;46.298;11.506;2024-02-04T00:50:22;90145.75;;;4.96;55.58
46782;BME280;32541;46.298;11.506;2024-02-04T00:52:48;90148.28;;;4.94;55.55
46782;BME280;32541;46.298;11.506;2024-02-04T00:55:14;90142.91;;;5.01;55.50
46782;BME280;32541;46.298;11.506;2024-02-04T00:57:39;90143.88;;;4.91;55.84
46782;BME280;32541;46.298;11.506;2024-02-04T01:00:07;90143.72;;;4.76;56.92
46782;BME280;32541;46.298;11.506;2024-02-04T01:02:33;90148.25;;;4.73;55.61
46782;BME280;32541;46.298;11.506;2024-02-04T01:04:58;90144.88;;;4.80;56.26
46782;BME280;32541;46.298;11.506;2024-02-04T01:07:24;90143.44;;;4.66;57.57
46782;BME280;32541;46.298;11.506;2024-02-04T01:09:49;90136.66;;;4.60;57.53
46782;BME280;32541;46.298;11.506;2024-02-04T01:12:14;90138.22;;;4.55;57.17
46782;BME280;32541;46.298;11.506;2024-02-04T01:14:40;90138.44;;;4.57;57.09
46782;BME280;32541;46.298;11.506;2024-02-04T01:17:05;90145.28;;;4.51;57.13
46782;BME280;32541;46.298;11.506;2024-02-04T01:19:31;90138.22;;;4.55;56.54
46782;BME280;32541;46.298;11.506;2024-02-04T01:22:15;90140.56;;;4.51;57.17
46782;BME280;32541;46.298;11.506;2024-02-04T01:24:40;90148.63;;;4.43;57.28
46782;BME280;32541;46.298;11.506;2024-02-04T01:27:05;90144.44;;;4.42;56.70
46782;BME280;32541;46.298;11.506;2024-02-04T01:29:32;90150.84;;;4.45;55.95
46782;BME280;32541;46.298;11.506;2024-02-04T01:31:58;90148.13;;;4.45;56.67
46782;BME280;32541;46.298;11.506;2024-02-04T01:34:23;90145.91;;;4.43;56.36
46782;BME280;32541;46.298;11.506;2024-02-04T01:36:48;90148.94;;;4.53;56.65
46782;BME280;32541;46.298;11.506;2024-02-04T01:39:14;90150.53;;;4.35;56.50
46782;BME280;32541;46.298;11.506;2024-02-04T01:41:39;90142.16;;;4.33;56.68
46782;BME280;32541;46.298;11.506;2024-02-04T01:44:05;90144.66;;;4.31;56.83
46782;BME280;32541;46.298;11.506;2024-02-04T01:46:31;90144.16;;;4.33;56.64
46782;BME280;32541;46.298;11.506;2024-02-04T01:48:57;90146.03;;;4.38;56.35
46782;BME280;32541;46.298;11.506;2024-02-04T01:51:22;90149.78;;;4.35;57.06
46782;BME280;32541;46.298;11.506;2024-02-04T01:53:48;90150.94;;;4.39;56.47
46782;BME280;32541;46.298;11.506;2024-02-04T01:56:14;90156.47;;;4.47;55.99
46782;BME280;32541;46.298;11.506;2024-02-04T01:58:42;90160.13;;;4.49;56.76
46782;BME280;32541;46.298;11.506;2024-02-04T02:01:09;90151.84;;;4.55;55.70
46782;BME280;32541;46.298;11.506;2024-02-04T02:03:35;90151.28;;;4.36;56.05
46782;BME280;32541;46.298;11.506;2024-02-04T02:06:02;90139.88;;;4.24;57.19
46782;BME280;32541;46.298;11.506;2024-02-04T02:08:28;90136.66;;;4.13;57.20
46782;BME280;32541;46.298;11.506;2024-02-04T02:11:02;90139.78;;;4.17;56.29
46782;BME280;32541;46.298;11.506;2024-02-04T02:13:31;90161.13;;;4.13;56.84
46782;BME280;32541;46.298;11.506;2024-02-04T02:16:09;90148.25;;;4.13;56.96
46782;BME280;32541;46.298;11.506;2024-02-04T02:18:47;90149.91;;;4.16;56.68
46782;BME280;32541;46.298;11.506;2024-02-04T02:24:09;90152.97;;;4.13;56.39
46782;BME280;32541;46.298;11.506;2024-02-04T02:26:35;90157.69;;;4.12;56.95
46782;BME280;32541;46.298;11.506;2024-02-04T02:29:04;90154.31;;;4.19;56.64
46782;BME280;32541;46.298;11.506;2024-02-04T02:31:30;90148.03;;;4.24;55.66
46782;BME280;32541;46.298;11.506;2024-02-04T02:33:56;90134.94;;;4.23;55.06
46782;BME280;32541;46.298;11.506;2024-02-04T02:36:23;90126.03;;;4.22;55.33
46782;BME280;32541;46.298;11.506;2024-02-04T02:41:22;90121.25;;;4.15;56.47
46782;BME280;32541;46.298;11.506;2024-02-04T02:43:51;90110.56;;;4.04;56.47
46782;BME280;32541;46.298;11.506;2024-02-04T02:46:18;90110.56;;;4.04;55.85
46782;BME280;32541;46.298;11.506;2024-02-04T02:48:44;90108.69;;;3.99;55.97
46782;BME280;32541;46.298;11.506;2024-02-04T02:51:09;90103.06;;;3.97;56.59
46782;BME280;32541;46.298;11.506;2024-02-04T02:53:35;90095.09;;;3.99;55.75
46782;BME280;32541;46.298;11.506;2024-02-04T02:56:00;90097.72;;;4.05;55.66
46782;BME280;32541;46.298;11.506;2024-02-04T02:58:25;90091.72;;;4.19;56.05
46782;BME280;32541;46.298;11.506;2024-02-04T03:00:51;90082.84;;;3.92;56.82
46782;BME280;32541;46.298;11.506;2024-02-04T03:03:16;90085.69;;;4.00;56.18
46782;BME280;32541;46.298;11.506;2024-02-04T03:05:41;90076.69;;;3.92;57.09
46782;BME280;32541;46.298;11.506;2024-02-04T03:08:07;90070.41;;;3.84;57.70
46782;BME280;32541;46.298;11.506;2024-02-04T03:10:32;90072.53;;;3.78;57.58
46782;BME280;32541;46.298;11.506;2024-02-04T03:12:57;90067.72;;;3.58;58.45
46782;BME280;32541;46.298;11.506;2024-02-04T03:15:23;90068.66;;;3.60;58.61
46782;BME280;32541;46.298;11.506;2024-02-04T03:17:48;90065.63;;;3.51;58.09
46782;BME280;32541;46.298;11.506;2024-02-04T03:20:13;90059.56;;;3.58;57.57
46782;BME280;32541;46.298;11.506;2024-02-04T03:22:39;90062.47;;;3.60;57.30
46782;BME280;32541;46.298;11.506;2024-02-04T03:25:04;90065.19;;;3.60;58.45
46782;BME280;32541;46.298;11.506;2024-02-04T03:27:30;90063.84;;;3.66;57.63
46782;BME280;32541;46.298;11.506;2024-02-04T03:29:55;90073.59;;;3.62;58.08
46782;BME280;32541;46.298;11.506;2024-02-04T03:32:20;90085.72;;;3.61;57.83
46782;BME280;32541;46.298;11.506;2024-02-04T03:34:46;90073.25;;;3.65;58.19
46782;BME280;32541;46.298;11.506;2024-02-04T03:37:11;90070.66;;;3.60;58.27
46782;BME280;32541;46.298;11.506;2024-02-04T03:39:37;90063.00;;;3.45;58.85
46782;BME280;32541;46.298;11.506;2024-02-04T03:42:02;90059.97;;;3.49;58.73
46782;BME280;32541;46.298;11.506;2024-02-04T03:44:27;90060.50;;;3.60;57.08
46782;BME280;32541;46.298;11.506;2024-02-04T03:46:53;90061.03;;;3.46;57.88
46782;BME280;32541;46.298;11.506;2024-02-04T03:49:18;90060.09;;;3.56;57.62
46782;BME280;32541;46.298;11.506;2024-02-04T03:51:44;90058.00;;;3.49;57.96
46782;BME280;32541;46.298;11.506;2024-02-04T03:54:09;90071.69;;;3.44;57.67
46782;BME280;32541;46.298;11.506;2024-02-04T03:56:35;90066.06;;;3.55;57.93
46782;BME280;32541;46.298;11.506;2024-02-04T03:59:00;90073.56;;;3.49;57.91
46782;BME280;32541;46.298;11.506;2024-02-04T04:01:25;90073.28;;;3.52;58.06
46782;BME280;32541;46.298;11.506;2024-02-04T04:03:51;90083.94;;;3.50;58.45
46782;BME280;32541;46.298;11.506;2024-02-04T04:06:16;90090.84;;;3.38;58.83
46782;BME280;32541;46.298;11.506;2024-02-04T04:08:42;90093.31;;;3.36;57.93
46782;BME280;32541;46.298;11.506;2024-02-04T04:11:09;90089.25;;;3.43;57.52
46782;BME280;32541;46.298;11.506;2024-02-04T04:13:34;90084.88;;;3.53;57.34
46782;BME280;32541;46.298;11.506;2024-02-04T04:16:00;90089.59;;;3.52;57.96
46782;BME280;32541;46.298;11.506;2024-02-04T04:18:26;90094.91;;;3.45;57.48
46782;BME280;32541;46.298;11.506;2024-02-04T04:20:51;90102.25;;;3.50;57.41
46782;BME280;32541;46.298;11.506;2024-02-04T04:23:16;90103.56;;;3.30;58.38
46782;BME280;32541;46.298;11.506;2024-02-04T04:25:42;90098.97;;;3.25;58.25
46782;BME280;32541;46.298;11.506;2024-02-04T04:28:07;90110.38;;;3.36;58.01
46782;BME280;32541;46.298;11.506;2024-02-04T04:30:32;90117.59;;;3.34;58.54
46782;BME280;32541;46.298;11.506;2024-02-04T04:32:58;90105.78;;;3.31;58.05
46782;BME280;32541;46.298;11.506;2024-02-04T04:35:24;90111.00;;;3.29;57.55
46782;BME280;32541;46.298;11.506;2024-02-04T04:37:50;90121.38;;;3.44;57.45
46782;BME280;32541;46.298;11.506;2024-02-04T04:40:15;90118.31;;;3.34;58.21
46782;BME280;32541;46.298;11.506;2024-02-04T04:42:40;90126.28;;;3.32;57.53
46782;BME280;32541;46.298;11.506;2024-02-04T04:45:06;90118.63;;;3.31;58.23
46782;BME280;32541;46.298;11.506;2024-02-04T04:47:33;90128.34;;;3.26;58.11
46782;BME280;32541;46.298;11.506;2024-02-04T04:49:59;90139.22;;;3.26;58.27
46782;BME280;32541;46.298;11.506;2024-02-04T04:52:24;90135.66;;;3.31;57.84
46782;BME280;32541;46.298;11.506;2024-02-04T04:54:49;90137.44;;;3.42;57.73
46782;BME280;32541;46.298;11.506;2024-02-04T04:57:15;90138.28;;;3.37;57.54
46782;BME280;32541;46.298;11.506;2024-02-04T04:59:40;90139.31;;;3.34;57.50
46782;BME280;32541;46.298;11.506;2024-02-04T05:02:06;90144.41;;;3.24;57.98
46782;BME280;32541;46.298;11.506;2024-02-04T05:04:31;90137.94;;;3.27;56.58
46782;BME280;32541;46.298;11.506;2024-02-04T05:06:56;90132.75;;;3.29;57.51
46782;BME280;32541;46.298;11.506;2024-02-04T05:09:22;90131.28;;;3.28;57.84
46782;BME280;32541;46.298;11.506;2024-02-04T05:11:47;90132.41;;;3.33;56.73
46782;BME280;32541;46.298;11.506;2024-02-04T05:14:13;90140.25;;;3.23;59.42
46782;BME280;32541;46.298;11.506;2024-02-04T05:16:38;90134.88;;;3.18;58.24
46782;BME280;32541;46.298;11.506;2024-02-04T05:19:04;90136.25;;;3.24;57.78
46782;BME280;32541;46.298;11.506;2024-02-04T05:21:29;90137.94;;;3.14;58.69
46782;BME280;32541;46.298;11.506;2024-02-04T05:23:55;90148.38;;;3.10;58.81
46782;BME280;32541;46.298;11.506;2024-02-04T05:26:20;90149.84;;;3.11;58.06
46782;BME280;32541;46.298;11.506;2024-02-04T05:28:46;90139.19;;;3.13;57.74
46782;BME280;32541;46.298;11.506;2024-02-04T05:31:11;90138.78;;;3.22;57.48
46782;BME280;32541;46.298;11.506;2024-02-04T05:33:37;90133.94;;;3.15;57.85
46782;BME280;32541;46.298;11.506;2024-02-04T05:36:02;90154.34;;;3.22;58.42
46782;BME280;32541;46.298;11.506;2024-02-04T05:38:28;90155.69;;;3.15;58.46
46782;BME280;32541;46.298;11.506;2024-02-04T05:40:54;90164.56;;;3.03;58.84
46782;BME280;32541;46.298;11.506;2024-02-04T05:43:19;90170.09;;;3.10;58.46
46782;BME280;32541;46.298;11.506;2024-02-04T05:45:45;90173.03;;;3.12;57.97
46782;BME280;32541;46.298;11.506;2024-02-04T05:48:10;90188.91;;;3.08;57.65
46782;BME280;32541;46.298;11.506;2024-02-04T05:50:35;90182.28;;;3.04;58.94
46782;BME280;32541;46.298;11.506;2024-02-04T05:53:01;90190.25;;;3.02;58.52
46782;BME280;32541;46.298;11.506;2024-02-04T05:55:27;90194.84;;;3.07;57.84
46782;BME280;32541;46.298;11.506;2024-02-04T05:57:52;90194.50;;;2.97;58.34
46782;BME280;32541;46.298;11.506;2024-02-04T06:00:20;90204.19;;;2.93;58.73
46782;BME280;32541;46.298;11.506;2024-02-04T06:02:46;90203.91;;;2.96;58.03
46782;BME280;32541;46.298;11.506;2024-02-04T06:05:13;90199.78;;;2.90;59.44
46782;BME280;32541;46.298;11.506;2024-02-04T06:07:39;90200.09;;;2.86;59.29
46782;BME280;32541;46.298;11.506;2024-02-04T06:10:09;90191.56;;;2.95;58.49
46782;BME280;32541;46.298;11.506;2024-02-04T06:12:34;90202.22;;;2.93;59.17
46782;BME280;32541;46.298;11.506;2024-02-04T06:14:59;90196.72;;;2.80;60.19
46782;BME280;32541;46.298;11.506;2024-02-04T06:17:25;90194.25;;;2.82;59.30
46782;BME280;32541;46.298;11.506;2024-02-04T06:19:50;90200.09;;;2.86;58.85
46782;BME280;32541;46.298;11.506;2024-02-04T06:22:16;90194.63;;;2.73;60.69
46782;BME280;32541;46.298;11.506;2024-02-04T06:24:41;90193.50;;;2.63;61.34
46782;BME280;32541;46.298;11.506;2024-02-04T06:27:08;90191.16;;;2.54;60.64
46782;BME280;32541;46.298;11.506;2024-02-04T06:29:33;90177.22;;;2.63;59.75
46782;BME280;32541;46.298;11.506;2024-02-04T06:31:59;90191.44;;;2.69;61.17
46782;BME280;32541;46.298;11.506;2024-02-04T06:34:24;90199.81;;;2.71;60.02
46782;BME280;32541;46.298;11.506;2024-02-04T06:36:50;90196.63;;;2.86;59.18
46782;BME280;32541;46.298;11.506;2024-02-04T06:39:15;90189.13;;;2.92;59.83
46782;BME280;32541;46.298;11.506;2024-02-04T06:41:41;90190.09;;;2.94;59.54
46782;BME280;32541;46.298;11.506;2024-02-04T06:44:07;90191.38;;;3.06;59.30
46782;BME280;32541;46.298;11.506;2024-02-04T06:46:32;90189.72;;;3.03;59.05
46782;BME280;32541;46.298;11.506;2024-02-04T06:48:58;90183.56;;;3.03;59.37
46782;BME280;32541;46.298;11.506;2024-02-04T06:51:23;90195.66;;;3.02;59.26
46782;BME280;32541;46.298;11.506;2024-02-04T06:53:48;90200.63;;;3.16;59.57
46782;BME280;32541;46.298;11.506;2024-02-04T06:56:14;90194.03;;;3.12;58.77
46782;BME280;32541;46.298;11.506;2024-02-04T06:58:43;90193.84;;;2.91;61.23
46782;BME280;32541;46.298;11.506;2024-02-04T07:01:09;90187.69;;;2.91;59.38
46782;BME280;32541;46.298;11.506;2024-02-04T07:03:35;90186.34;;;2.97;59.87
46782;BME280;32541;46.298;11.506;2024-02-04T07:06:00;90186.44;;;2.92;59.76
46782;BME280;32541;46.298;11.506;2024-02-04T07:08:26;90203.16;;;2.96;59.52
46782;BME280;32541;46.298;11.506;2024-02-04T07:10:52;90184.28;;;3.03;59.04
46782;BME280;32541;46.298;11.506;2024-02-04T07:13:18;90188.59;;;3.12;58.48
46782;BME280;32541;46.298;11.506;2024-02-04T07:15:43;90190.31;;;3.28;59.42
46782;BME280;32541;46.298;11.506;2024-02-04T07:18:09;90201.09;;;3.33;57.78
46782;BME280;32541;46.298;11.506;2024-02-04T07:20:35;90191.91;;;3.36;57.08
46782;BME280;32541;46.298;11.506;2024-02-04T07:23:00;90195.91;;;3.35;58.85
46782;BME280;32541;46.298;11.506;2024-02-04T07:25:26;90204.81;;;3.17;61.04
46782;BME280;32541;46.298;11.506;2024-02-04T07:27:51;90196.03;;;3.11;60.48
46782;BME280;32541;46.298;11.506;2024-02-04T07:30:16;90190.19;;;3.20;60.34
46782;BME280;32541;46.298;11.506;2024-02-04T07:32:42;90202.75;;;3.23;59.42
46782;BME280;32541;46.298;11.506;2024-02-04T07:35:08;90190.53;;;3.30;59.09
46782;BME280;32541;46.298;11.506;2024-02-04T07:37:37;90191.06;;;3.42;58.93
46782;BME280;32541;46.298;11.506;2024-02-04T07:40:03;90190.09;;;3.71;59.54
46782;BME280;32541;46.298;11.506;2024-02-04T07:42:30;90188.88;;;4.24;57.83
46782;BME280;32541;46.298;11.506;2024-02-04T07:44:56;90180.03;;;4.91;55.39
46782;BME280;32541;46.298;11.506;2024-02-04T07:47:21;90183.03;;;6.33;52.53
46782;BME280;32541;46.298;11.506;2024-02-04T07:49:47;90171.63;;;7.36;49.25
46782;BME280;32541;46.298;11.506;2024-02-04T07:52:13;90184.22;;;9.08;45.79
46782;BME280;32541;46.298;11.506;2024-02-04T07:54:38;90179.13;;;10.26;42.83
46782;BME280;32541;46.298;11.506;2024-02-04T07:57:04;90172.16;;;12.25;39.68
46782;BME280;32541;46.298;11.506;2024-02-04T07:59:29;90174.91;;;13.67;38.04
46782;BME280;32541;46.298;11.506;2024-02-04T08:01:55;90169.88;;;14.75;34.58
46782;BME280;32541;46.298;11.506;2024-02-04T08:04:20;90166.59;;;15.51;31.98
46782;BME280;32541;46.298;11.506;2024-02-04T08:06:46;90161.50;;;16.48;32.83
46782;BME280;32541;46.298;11.506;2024-02-04T08:09:11;90160.53;;;17.50;31.78
46782;BME280;32541;46.298;11.506;2024-02-04T08:11:37;90162.78;;;18.41;29.10
46782;BME280;32541;46.298;11.506;2024-02-04T08:14:02;90167.09;;;19.51;28.41
46782;BME280;32541;46.298;11.506;2024-02-04T08:16:28;90164.19;;;19.76;28.18
46782;BME280;32541;46.298;11.506;2024-02-04T08:18:53;90153.97;;;19.67;28.07
46782;BME280;32541;46.298;11.506;2024-02-04T08:21:19;90161.22;;;20.31;27.24
46782;BME280;32541;46.298;11.506;2024-02-04T08:23:44;90158.19;;;20.56;27.15
46782;BME280;32541;46.298;11.506;2024-02-04T08:26:09;90155.13;;;19.91;27.93
46782;BME280;32541;46.298;11.506;2024-02-04T08:28:35;90160.78;;;18.55;27.83
46782;BME280;32541;46.298;11.506;2024-02-04T08:31:00;90161.34;;;18.93;28.51
46782;BME280;32541;46.298;11.506;2024-02-04T08:33:26;90166.28;;;19.62;27.76
46782;BME280;32541;46.298;11.506;2024-02-04T08:35:51;90163.50;;;17.29;29.17
46782;BME280;32541;46.298;11.506;2024-02-04T08:38:17;90168.69;;;15.63;31.23
46782;BME280;32541;46.298;11.506;2024-02-04T08:40:42;90179.25;;;15.12;33.32
46782;BME280;32541;46.298;11.506;2024-02-04T08:43:07;90160.19;;;15.49;32.59
46782;BME280;32541;46.298;11.506;2024-02-04T08:45:33;90159.75;;;15.10;33.15
46782;BME280;32541;46.298;11.506;2024-02-04T08:47:58;90161.44;;;15.15;33.17
46782;BME280;32541;46.298;11.506;2024-02-04T08:50:23;90165.50;;;14.51;34.19
46782;BME280;32541;46.298;11.506;2024-02-04T08:52:49;90167.69;;;14.73;34.43
46782;BME280;32541;46.298;11.506;2024-02-04T08:55:14;90162.91;;;15.16;33.55
46782;BME280;32541;46.298;11.506;2024-02-04T08:57:40;90166.63;;;14.57;34.05
46782;BME280;32541;46.298;11.506;2024-02-04T09:00:05;90162.97;;;14.85;35.07
46782;BME280;32541;46.298;11.506;2024-02-04T09:02:36;90163.81;;;15.09;34.88
46782;BME280;32541;46.298;11.506;2024-02-04T09:05:02;90178.91;;;15.39;34.31
46782;BME280;32541;46.298;11.506;2024-02-04T09:07:27;90153.38;;;14.15;34.17
46782;BME280;32541;46.298;11.506;2024-02-04T09:09:53;90149.72;;;14.84;33.77
46782;BME280;32541;46.298;11.506;2024-02-04T09:12:18;90152.31;;;15.45;32.70
46782;BME280;32541;46.298;11.506;2024-02-04T09:14:43;90139.72;;;13.58;34.80
46782;BME280;32541;46.298;11.506;2024-02-04T09:17:09;90137.31;;;13.93;35.54
46782;BME280;32541;46.298;11.506;2024-02-04T09:19:35;90133.25;;;14.24;35.33
46782;BME280;32541;46.298;11.506;2024-02-04T09:22:01;90136.72;;;14.86;36.40
46782;BME280;32541;46.298;11.506;2024-02-04T09:24:27;90137.28;;;14.42;33.89
46782;BME280;32541;46.298;11.506;2024-02-04T09:26:52;90135.38;;;12.68;37.30
46782;BME280;32541;46.298;11.506;2024-02-04T09:29:18;90135.53;;;13.38;37.54
46782;BME280;32541;46.298;11.506;2024-02-04T09:31:44;90133.59;;;14.50;35.32
46782;BME280;32541;46.298;11.506;2024-02-04T09:34:09;90128.22;;;15.15;34.76
46782;BME280;32541;46.298;11.506;2024-02-04T09:36:34;90124.50;;;15.43;34.02
46782;BME280;32541;46.298;11.506;2024-02-04T09:39:00;90123.03;;;15.42;33.70
46782;BME280;32541;46.298;11.506;2024-02-04T09:41:25;90125.38;;;16.02;34.46
46782;BME280;32541;46.298;11.506;2024-02-04T09:43:53;90122.66;;;16.72;32.25
46782;BME280;32541;46.298;11.506;2024-02-04T09:46:19;90114.03;;;16.09;34.31
46782;BME280;32541;46.298;11.506;2024-02-04T09:48:45;90119.16;;;16.48;31.71
46782;BME280;32541;46.298;11.506;2024-02-04T09:51:10;90116.81;;;15.53;32.39
46782;BME280;32541;46.298;11.506;2024-02-04T09:53:41;90113.78;;;15.17;33.44
46782;BME280;32541;46.298;11.506;2024-02-04T09:56:08;90118.38;;;14.39;35.73
46782;BME280;32541;46.298;11.506;2024-02-04T09:58:35;90106.38;;;13.75;37.92
46782;BME280;32541;46.298;11.506;2024-02-04T10:01:01;90106.50;;;14.17;35.29
46782;BME280;32541;46.298;11.506;2024-02-04T10:03:27;90117.72;;;12.25;38.32
46782;BME280;32541;46.298;11.506;2024-02-04T10:05:53;90107.63;;;13.05;38.49
46782;BME280;32541;46.298;11.506;2024-02-04T10:08:19;90092.50;;;13.44;37.81
46782;BME280;32541;46.298;11.506;2024-02-04T10:10:45;90102.34;;;14.07;37.93
46782;BME280;32541;46.298;11.506;2024-02-04T10:13:11;90088.53;;;14.80;35.02
46782;BME280;32541;46.298;11.506;2024-02-04T10:15:37;90101.72;;;14.49;36.28
46782;BME280;32541;46.298;11.506;2024-02-04T10:18:03;90096.91;;;15.45;33.61
46782;BME280;32541;46.298;11.506;2024-02-04T10:20:30;90092.56;;;15.98;32.15
46782;BME280;32541;46.298;11.506;2024-02-04T10:22:55;90089.69;;;15.96;31.53
46782;BME280;32541;46.298;11.506;2024-02-04T10:25:21;90079.94;;;15.18;34.83
46782;BME280;32541;46.298;11.506;2024-02-04T10:27:46;90074.03;;;14.91;31.54
46782;BME280;32541;46.298;11.506;2024-02-04T10:30:12;90074.28;;;15.16;34.72
46782;BME280;32541;46.298;11.506;2024-02-04T10:32:39;90072.19;;;14.84;35.37
46782;BME280;32541;46.298;11.506;2024-02-04T10:35:04;90056.69;;;15.56;34.79
46782;BME280;32541;46.298;11.506;2024-02-04T10:37:30;90053.84;;;15.89;33.35
46782;BME280;32541;46.298;11.506;2024-02-04T10:39:55;90066.50;;;16.03;35.28
46782;BME280;32541;46.298;11.506;2024-02-04T10:42:27;90049.75;;;16.48;32.38
46782;BME280;32541;46.298;11.506;2024-02-04T10:44:57;90043.00;;;16.16;31.48
46782;BME280;32541;46.298;11.506;2024-02-04T10:47:29;90046.47;;;17.11;29.97
46782;BME280;32541;46.298;11.506;2024-02-04T10:49:58;90041.94;;;17.80;27.99
46782;BME280;32541;46.298;11.506;2024-02-04T10:52:27;90040.66;;;18.36;26.31
46782;BME280;32541;46.298;11.506;2024-02-04T10:54:53;90040.66;;;18.22;26.43
46782;BME280;32541;46.298;11.506;2024-02-04T10:57:21;90035.50;;;18.30;26.24
46782;BME280;32541;46.298;11.506;2024-02-04T10:59:48;90028.00;;;18.46;25.09
46782;BME280;32541;46.298;11.506;2024-02-04T11:02:15;90024.69;;;18.91;25.79
46782;BME280;32541;46.298;11.506;2024-02-04T11:04:42;90034.09;;;19.26;24.83
46782;BME280;32541;46.298;11.506;2024-02-04T11:07:09;90040.84;;;19.08;24.74
46782;BME280;32541;46.298;11.506;2024-02-04T11:09:36;90030.81;;;19.16;24.62
46782;BME280;32541;46.298;11.506;2024-02-04T11:12:04;90027.59;;;19.65;24.32
46782;BME280;32541;46.298;11.506;2024-02-04T11:14:32;90034.94;;;19.29;24.26
46782;BME280;32541;46.298;11.506;2024-02-04T11:25:09;90019.41;;;18.97;24.67
46782;BME280;32541;46.298;11.506;2024-02-04T11:27:40;90014.56;;;18.97;23.21
46782;BME280;32541;46.298;11.506;2024-02-04T11:30:06;90015.53;;;19.17;23.74
46782;BME280;32541;46.298;11.506;2024-02-04T11:32:34;90025.50;;;19.36;24.36
46782;BME280;32541;46.298;11.506;2024-02-04T11:35:00;90008.91;;;19.24;23.23
46782;BME280;32541;46.298;11.506;2024-02-04T11:37:28;90014.88;;;19.32;25.16
46782;BME280;32541;46.298;11.506;2024-02-04T11:39:56;90012.19;;;18.92;23.92
46782;BME280;32541;46.298;11.506;2024-02-04T11:42:25;90018.63;;;18.67;25.30
46782;BME280;32541;46.298;11.506;2024-02-04T11:45:09;90012.13;;;18.76;25.39
46782;BME280;32541;46.298;11.506;2024-02-04T11:47:34;90020.09;;;19.11;24.89
46782;BME280;32541;46.298;11.506;2024-02-04T11:50:03;90016.13;;;19.29;24.93
46782;BME280;32541;46.298;11.506;2024-02-04T11:52:29;90008.31;;;19.12;24.21
46782;BME280;32541;46.298;11.506;2024-02-04T11:54:55;90004.09;;;19.11;24.30
46782;BME280;32541;46.298;11.506;2024-02-04T11:57:21;90003.09;;;19.63;23.96
46782;BME280;32541;46.298;11.506;2024-02-04T11:59:48;90001.84;;;19.66;24.31
46782;BME280;32541;46.298;11.506;2024-02-04T12:02:16;90009.41;;;19.64;23.99
46782;BME280;32541;46.298;11.506;2024-02-04T12:04:44;90001.38;;;20.01;23.35
46782;BME280;32541;46.298;11.506;2024-02-04T12:07:10;90002.97;;;19.90;24.11
46782;BME280;32541;46.298;11.506;2024-02-04T12:09:35;89994.41;;;20.02;23.58
46782;BME280;32541;46.298;11.506;2024-02-04T12:12:02;89995.44;;;20.40;23.69
46782;BME280;32541;46.298;11.506;2024-02-04T12:14:28;89984.44;;;20.44;23.35
46782;BME280;32541;46.298;11.506;2024-02-04T12:16:57;89988.84;;;20.18;23.45
46782;BME280;32541;46.298;11.506;2024-02-04T12:19:24;89990.66;;;20.27;23.64
46782;BME280;32541;46.298;11.506;2024-02-04T12:21:49;89973.81;;;20.25;23.49
46782;BME280;32541;46.298;11.506;2024-02-04T12:24:18;89974.38;;;20.70;22.37
46782;BME280;32541;46.298;11.506;2024-02-04T12:26:44;89975.38;;;20.61;23.20
46782;BME280;32541;46.298;11.506;2024-02-04T12:29:13;89968.78;;;20.37;23.35
46782;BME280;32541;46.298;11.506;2024-02-04T12:31:39;89962.25;;;20.17;23.10
46782;BME280;32541;46.298;11.506;2024-02-04T12:34:05;89974.34;;;20.06;23.80
46782;BME280;32541;46.298;11.506;2024-02-04T12:36:31;89987.94;;;20.60;24.53
46782;BME280;32541;46.298;11.506;2024-02-04T12:38:58;89981.91;;;20.19;26.06
46782;BME280;32541;46.298;11.506;2024-02-04T12:41:25;89982.72;;;20.21;25.92
46782;BME280;32541;46.298;11.506;2024-02-04T12:43:56;89982.00;;;20.21;26.02
46782;BME280;32541;46.298;11.506;2024-02-04T12:46:22;89971.88;;;20.61;25.58
46782;BME280;32541;46.298;11.506;2024-02-04T12:48:56;89963.81;;;21.02;23.94
46782;BME280;32541;46.298;11.506;2024-02-04T12:51:32;89958.50;;;19.94;23.91
46782;BME280;32541;46.298;11.506;2024-02-04T12:54:09;89966.69;;;18.87;24.61
46782;BME280;32541;46.298;11.506;2024-02-04T12:59:10;89960.41;;;19.45;26.16
46782;BME280;32541;46.298;11.506;2024-02-04T13:01:38;89957.03;;;17.79;25.14
46782;BME280;32541;46.298;11.506;2024-02-04T13:04:04;89952.81;;;17.92;25.86
46782;BME280;32541;46.298;11.506;2024-02-04T13:06:30;89953.56;;;18.19;25.34